Time;durP1;ratioP1;P1;durP2;ratioP2;P2;SDS_P1;SDS_P2;PMS_P1;PMS_P2;Temp;Humidity;BMP_temperature;BMP_pressure;BME280_temperature;BME280_humidity;BME280_pressure;Samples;Min_cycle;Max_cycle;Signal;HPM_P1;HPM_P2
2023/01/25 00:02:19;;;;;;;1.48;1.05;;;1.60;89.50;;;;;;6127960;23;20029;-78
2023/01/25 00:04:44;;;;;;;2.10;1.23;;;1.60;89.50;;;;;;6154258;23;20056;-79
2023/01/25 00:07:10;;;;;;;1.40;0.90;;;1.60;89.60;;;;;;6128682;23;20021;-78
2023/01/25 00:09:36;;;;;;;2.45;1.30;;;1.50;89.50;;;;;;6154225;23;20426;-78
2023/01/25 00:12:01;;;;;;;1.98;1.25;;;1.60;89.50;;;;;;6100991;23;20003;-78
2023/01/25 00:14:27;;;;;;;1.65;1.02;;;1.60;89.50;;;;;;6103021;23;20021;-78
2023/01/25 00:16:52;;;;;;;1.77;1.05;;;1.60;89.50;;;;;;6127780;23;20088;-78
2023/01/25 00:19:18;;;;;;;1.67;1.00;;;1.50;89.50;;;;;;6154379;23;20008;-78
2023/01/25 00:21:44;;;;;;;1.85;0.98;;;1.40;89.50;;;;;;6079212;23;20001;-78
2023/01/25 00:24:13;;;;;;;2.47;1.33;;;1.50;89.80;;;;;;6128215;23;20056;-78
2023/01/25 00:26:38;;;;;;;1.95;1.08;;;1.50;89.80;;;;;;6128498;23;20013;-78
2023/01/25 00:29:05;;;;;;;2.50;1.35;;;1.50;89.60;;;;;;6154203;23;20326;-78
2023/01/25 00:31:40;;;;;;;1.48;0.90;;;1.40;89.50;;;;;;6104223;23;20002;-78
2023/01/25 00:34:43;;;;;;;1.20;0.80;;;1.50;89.60;;;;;;6125942;23;20326;-78
2023/01/25 00:37:19;;;;;;;1.65;1.00;;;1.40;89.70;;;;;;6110877;23;20334;-78
2023/01/25 00:39:45;;;;;;;1.33;0.82;;;1.50;89.70;;;;;;6105066;23;20006;-78
2023/01/25 00:42:12;;;;;;;1.50;0.98;;;1.50;89.60;;;;;;6103631;23;20332;-78
2023/01/25 00:44:38;;;;;;;1.58;0.93;;;1.50;89.60;;;;;;6128625;23;20033;-78
2023/01/25 00:47:05;;;;;;;1.70;1.02;;;1.50;89.60;;;;;;6103431;23;20060;-79
2023/01/25 00:49:32;;;;;;;1.38;0.82;;;1.50;89.60;;;;;;6103937;23;20009;-78
2023/01/25 00:51:58;;;;;;;2.03;1.30;;;1.50;89.60;;;;;;6126736;23;20006;-78
2023/01/25 00:54:24;;;;;;;1.92;1.20;;;1.60;89.60;;;;;;6127774;23;20100;-78
2023/01/25 00:56:52;;;;;;;2.40;1.40;;;1.50;89.50;;;;;;6128619;23;20005;-78
2023/01/25 00:59:18;;;;;;;1.50;0.90;;;1.40;89.50;;;;;;6104076;23;20008;-78
2023/01/25 01:01:44;;;;;;;1.73;1.13;;;1.50;89.60;;;;;;6103280;23;20007;-78
2023/01/25 01:04:10;;;;;;;2.00;1.10;;;1.40;89.70;;;;;;6153496;23;20006;-78
2023/01/25 01:06:37;;;;;;;1.40;0.88;;;1.50;89.80;;;;;;6153710;23;20008;-78
2023/01/25 01:09:05;;;;;;;1.70;1.25;;;1.30;89.60;;;;;;6127236;23;20004;-78
2023/01/25 01:11:31;;;;;;;2.03;1.05;;;1.40;89.70;;;;;;6127455;23;19998;-78
2023/01/25 01:13:58;;;;;;;2.33;1.20;;;1.30;89.60;;;;;;6127494;23;20004;-78
2023/01/25 01:16:24;;;;;;;1.83;1.15;;;1.30;89.70;;;;;;6125061;23;20009;-79
2023/01/25 01:18:50;;;;;;;2.00;1.17;;;1.40;89.70;;;;;;6127731;23;20398;-78
2023/01/25 01:21:16;;;;;;;2.53;1.13;;;1.30;89.70;;;;;;6127943;23;20044;-79
2023/01/25 01:23:42;;;;;;;2.47;1.30;;;1.40;89.70;;;;;;6102931;23;20010;-78
2023/01/25 01:26:11;;;;;;;3.00;1.65;;;1.40;89.70;;;;;;6127694;23;20005;-78
2023/01/25 01:28:38;;;;;;;2.30;1.58;;;1.40;89.70;;;;;;6115011;23;20026;-78
2023/01/25 01:31:07;;;;;;;2.75;1.40;;;1.30;89.60;;;;;;6181638;23;20020;-78
2023/01/25 01:33:33;;;;;;;3.03;1.52;;;1.30;89.70;;;;;;6183240;23;20329;-78
2023/01/25 01:36:06;;;;;;;2.30;1.35;;;1.30;89.70;;;;;;6156505;23;20005;-78
2023/01/25 01:38:32;;;;;;;2.33;1.20;;;1.30;89.60;;;;;;6157180;23;20315;-78
2023/01/25 01:40:57;;;;;;;1.77;1.13;;;1.30;89.60;;;;;;6131994;23;20068;-78
2023/01/25 01:43:23;;;;;;;2.13;1.10;;;1.30;89.70;;;;;;6181271;23;20325;-78
2023/01/25 01:45:54;;;;;;;2.13;1.20;;;1.30;89.60;;;;;;6156910;23;20059;-78
2023/01/25 01:48:40;;;;;;;2.35;1.15;;;1.30;89.60;;;;;;6133171;23;20044;-78
2023/01/25 01:51:32;;;;;;;1.80;1.05;;;1.30;89.60;;;;;;6155531;23;20020;-78
2023/01/25 01:54:26;;;;;;;2.30;1.20;;;1.30;89.60;;;;;;6107262;23;20002;-78
2023/01/25 01:56:58;;;;;;;2.85;1.42;;;1.30;89.70;;;;;;6155817;23;20017;-78
2023/01/25 01:59:29;;;;;;;2.58;1.27;;;1.30;89.50;;;;;;6157076;23;20012;-78
2023/01/25 02:01:55;;;;;;;1.30;0.88;;;1.40;89.50;;;;;;6184092;23;20330;-78
2023/01/25 02:04:24;;;;;;;2.58;1.40;;;1.30;89.60;;;;;;6157771;23;20001;-78
2023/01/25 02:06:54;;;;;;;1.90;1.10;;;1.30;89.60;;;;;;6131790;23;19997;-79
2023/01/25 02:09:23;;;;;;;1.67;1.10;;;1.30;89.70;;;;;;6133124;23;20001;-78
2023/01/25 02:11:50;;;;;;;2.83;1.35;;;1.30;89.60;;;;;;6184082;23;20001;-78
2023/01/25 02:14:17;;;;;;;1.70;1.05;;;1.30;89.60;;;;;;6130962;23;20915;-78
2023/01/25 02:16:44;;;;;;;2.97;1.70;;;1.30;89.60;;;;;;6130753;23;20112;-78
2023/01/25 02:19:16;;;;;;;2.47;1.40;;;1.30;89.60;;;;;;6133059;23;20008;-78
2023/01/25 02:21:44;;;;;;;2.10;1.33;;;1.20;89.60;;;;;;6132980;23;20459;-78
2023/01/25 02:24:19;;;;;;;2.70;1.40;;;1.30;89.60;;;;;;6157970;23;19997;-78
2023/01/25 02:26:45;;;;;;;2.28;1.40;;;1.10;89.60;;;;;;6124629;23;20317;-78
2023/01/25 02:29:11;;;;;;;3.25;1.70;;;1.20;89.60;;;;;;6132877;23;19997;-78
2023/01/25 02:31:37;;;;;;;1.42;1.10;;;1.10;89.60;;;;;;6158366;23;20001;-78
2023/01/25 02:34:03;;;;;;;2.63;1.40;;;1.10;89.70;;;;;;6182608;23;20019;-79
2023/01/25 02:36:31;;;;;;;3.40;1.80;;;1.10;89.70;;;;;;6157844;23;20333;-78
2023/01/25 02:39:01;;;;;;;3.67;1.90;;;1.00;89.70;;;;;;6133299;23;20005;-78
2023/01/25 02:41:34;;;;;;;2.60;1.45;;;1.00;89.80;;;;;;6184532;23;19998;-78
2023/01/25 02:44:05;;;;;;;2.42;1.25;;;1.10;89.90;;;;;;6184409;23;19997;-78
2023/01/25 02:46:34;;;;;;;3.13;1.50;;;1.00;89.80;;;;;;6184279;23;20001;-78
2023/01/25 02:49:01;;;;;;;1.85;1.15;;;1.00;89.70;;;;;;6132844;23;20085;-78
2023/01/25 02:51:29;;;;;;;2.60;1.25;;;1.00;89.70;;;;;;6132923;23;20049;-78
2023/01/25 02:53:56;;;;;;;2.75;1.45;;;1.00;89.80;;;;;;6133583;23;20037;-78
2023/01/25 02:56:22;;;;;;;1.88;1.00;;;1.00;89.90;;;;;;6157347;23;20033;-78
2023/01/25 02:58:47;;;;;;;2.40;1.50;;;1.00;89.80;;;;;;6154885;23;20002;-79
2023/01/25 03:01:14;;;;;;;1.88;1.00;;;1.10;89.80;;;;;;6133356;23;20045;-78
2023/01/25 03:03:40;;;;;;;2.72;1.45;;;1.10;89.80;;;;;;6132891;23;20039;-79
2023/01/25 03:06:06;;;;;;;1.45;1.00;;;1.10;89.70;;;;;;6157567;23;20044;-78
2023/01/25 03:08:32;;;;;;;1.63;1.10;;;1.10;89.70;;;;;;6157757;23;20131;-78
2023/01/25 03:11:00;;;;;;;2.53;1.40;;;1.00;89.60;;;;;;6156150;23;20330;-78
2023/01/25 03:13:26;;;;;;;2.67;1.50;;;1.10;89.60;;;;;;6184013;23;20037;-78
2023/01/25 03:15:58;;;;;;;2.35;1.27;;;1.10;89.70;;;;;;6184021;23;20024;-78
2023/01/25 03:18:24;;;;;;;2.15;1.15;;;1.10;89.60;;;;;;6131198;23;20005;-78
2023/01/25 03:20:50;;;;;;;2.30;1.30;;;1.10;89.60;;;;;;6158035;23;20299;-78
2023/01/25 03:23:15;;;;;;;2.50;1.20;;;1.10;89.60;;;;;;6181843;23;20033;-78
2023/01/25 03:25:41;;;;;;;2.58;1.40;;;1.10;89.50;;;;;;6132447;23;20355;-78
2023/01/25 03:28:07;;;;;;;2.10;1.30;;;1.10;89.60;;;;;;6132674;23;20005;-78
2023/01/25 03:30:32;;;;;;;2.40;1.25;;;1.10;89.60;;;;;;6157373;23;20009;-79
2023/01/25 03:32:58;;;;;;;1.67;1.08;;;1.10;89.60;;;;;;6184097;23;20001;-79
2023/01/25 03:35:24;;;;;;;2.58;1.30;;;1.10;89.50;;;;;;6181181;23;20503;-78
2023/01/25 03:37:49;;;;;;;2.40;1.38;;;1.10;89.60;;;;;;6181925;23;20013;-79
2023/01/25 03:40:15;;;;;;;2.20;1.40;;;1.10;89.50;;;;;;6184270;23;20001;-79
2023/01/25 03:42:41;;;;;;;2.50;1.20;;;1.10;89.60;;;;;;6157342;23;20079;-78
2023/01/25 03:45:07;;;;;;;2.00;1.23;;;1.00;89.50;;;;;;6132788;23;20031;-78
2023/01/25 03:47:32;;;;;;;2.42;1.40;;;1.10;89.50;;;;;;6157391;23;20385;-78
2023/01/25 03:49:58;;;;;;;2.67;1.40;;;1.10;89.60;;;;;;6157015;23;20012;-79
2023/01/25 03:52:25;;;;;;;1.45;0.95;;;1.10;89.60;;;;;;6181964;23;20447;-78
2023/01/25 03:54:51;;;;;;;2.13;1.13;;;1.10;90.00;;;;;;6133041;23;20064;-78
2023/01/25 03:57:17;;;;;;;2.55;1.20;;;1.10;89.60;;;;;;6132804;23;20925;-79
2023/01/25 03:59:42;;;;;;;1.70;0.93;;;1.10;89.60;;;;;;6156740;23;20421;-78
2023/01/25 04:02:08;;;;;;;2.40;1.30;;;1.10;89.60;;;;;;6157596;23;20028;-79
2023/01/25 04:04:34;;;;;;;2.08;1.20;;;1.10;89.60;;;;;;6157277;23;20009;-78
2023/01/25 04:07:00;;;;;;;2.47;1.08;;;1.00;89.50;;;;;;6157558;23;20063;-78
2023/01/25 04:09:26;;;;;;;2.03;1.20;;;1.10;89.60;;;;;;6157349;23;20430;-79
2023/01/25 04:11:51;;;;;;;2.88;1.40;;;0.90;89.40;;;;;;6132544;23;20055;-78
2023/01/25 04:14:17;;;;;;;3.55;1.63;;;1.00;89.60;;;;;;6131277;23;20002;-78
2023/01/25 04:16:42;;;;;;;2.50;1.35;;;1.00;89.70;;;;;;6157208;23;20013;-78
2023/01/25 04:19:08;;;;;;;3.95;1.73;;;1.00;89.80;;;;;;6132502;23;20302;-78
2023/01/25 04:21:34;;;;;;;2.95;1.60;;;1.00;89.70;;;;;;6132309;23;20384;-78
2023/01/25 04:23:59;;;;;;;2.10;1.30;;;1.00;89.70;;;;;;6182023;23;20001;-78
2023/01/25 04:26:25;;;;;;;3.08;1.50;;;1.10;89.60;;;;;;6109701;23;20048;-78
2023/01/25 04:28:51;;;;;;;3.38;1.77;;;1.10;89.60;;;;;;6157433;23;20009;-78
2023/01/25 04:31:16;;;;;;;2.20;1.20;;;1.10;89.60;;;;;;6157104;23;20001;-78
2023/01/25 04:33:42;;;;;;;2.95;1.50;;;1.00;89.60;;;;;;6132529;23;20068;-78
2023/01/25 04:36:07;;;;;;;3.05;1.60;;;1.00;89.50;;;;;;6156871;23;20012;-78
2023/01/25 04:38:33;;;;;;;3.50;1.80;;;1.10;89.60;;;;;;6156889;23;20490;-78
2023/01/25 04:40:59;;;;;;;2.95;1.60;;;1.00;89.50;;;;;;6132369;23;20017;-78
2023/01/25 04:43:25;;;;;;;3.20;1.73;;;0.90;89.70;;;;;;6132246;23;20005;-78
2023/01/25 04:45:51;;;;;;;2.88;1.55;;;0.90;89.80;;;;;;6132443;23;19997;-78
2023/01/25 04:48:17;;;;;;;2.35;1.30;;;0.90;89.90;;;;;;6132494;23;20013;-78
2023/01/25 04:50:44;;;;;;;2.78;1.63;;;0.80;89.80;;;;;;6130845;23;20009;-78
2023/01/25 04:53:11;;;;;;;2.95;1.58;;;0.90;89.90;;;;;;6156862;23;20009;-79
2023/01/25 04:55:37;;;;;;;2.20;1.25;;;0.90;89.90;;;;;;6157322;23;20391;-78
2023/01/25 04:58:03;;;;;;;2.63;1.48;;;0.90;89.90;;;;;;6130436;23;20099;-78
2023/01/25 05:00:30;;;;;;;2.65;1.25;;;0.90;89.90;;;;;;6130461;23;20310;-78
2023/01/25 05:02:55;;;;;;;2.45;1.42;;;0.90;89.90;;;;;;6132819;23;20047;-79
2023/01/25 05:05:21;;;;;;;3.33;1.88;;;0.90;89.80;;;;;;6184163;23;20354;-78
2023/01/25 05:07:47;;;;;;;3.45;1.80;;;0.80;89.70;;;;;;6132883;23;20009;-78
2023/01/25 05:10:13;;;;;;;3.53;1.40;;;0.90;89.80;;;;;;6184198;23;20076;-78
2023/01/25 05:12:39;;;;;;;2.80;1.58;;;0.90;89.80;;;;;;6132709;23;20012;-78
2023/01/25 05:15:05;;;;;;;2.97;1.60;;;0.90;89.90;;;;;;6183442;23;20009;-78
2023/01/25 05:17:31;;;;;;;3.72;1.90;;;0.90;89.90;;;;;;6129751;23;19997;-78
2023/01/25 05:19:57;;;;;;;3.42;1.80;;;1.00;89.90;;;;;;6157313;23;20302;-78
2023/01/25 05:22:23;;;;;;;2.45;1.33;;;0.80;89.80;;;;;;6131832;23;20005;-78
2023/01/25 05:24:49;;;;;;;3.35;1.52;;;1.00;89.80;;;;;;6184204;23;20008;-79
2023/01/25 05:27:18;;;;;;;3.58;1.70;;;0.90;89.80;;;;;;6132575;23;20369;-78
2023/01/25 05:29:45;;;;;;;2.53;1.60;;;0.90;89.80;;;;;;6130200;23;20424;-79
2023/01/25 05:32:14;;;;;;;2.58;1.50;;;0.90;89.80;;;;;;6156183;23;20010;-78
2023/01/25 05:34:41;;;;;;;3.33;1.52;;;0.90;89.80;;;;;;6131842;23;20005;-78
2023/01/25 05:37:09;;;;;;;2.53;1.15;;;0.90;89.80;;;;;;6157461;23;20393;-78
2023/01/25 05:39:35;;;;;;;3.47;1.70;;;0.90;89.80;;;;;;6132619;23;20426;-78
2023/01/25 05:42:01;;;;;;;2.80;1.33;;;0.90;89.80;;;;;;6132578;23;20113;-78
2023/01/25 05:44:26;;;;;;;3.55;1.70;;;0.90;89.80;;;;;;6133143;23;20367;-79
2023/01/25 05:46:52;;;;;;;3.05;1.65;;;0.90;89.90;;;;;;6132438;23;20003;-78
2023/01/25 05:49:18;;;;;;;2.00;1.10;;;0.80;89.80;;;;;;6157094;23;20321;-78
2023/01/25 05:51:45;;;;;;;3.08;1.50;;;0.80;89.90;;;;;;6157066;23;20036;-78
2023/01/25 05:54:14;;;;;;;4.32;2.13;;;0.70;89.80;;;;;;6183158;23;20001;-78
2023/01/25 05:56:39;;;;;;;2.88;1.65;;;0.80;89.80;;;;;;6156923;23;20020;-78
2023/01/25 05:59:05;;;;;;;3.63;1.70;;;0.80;89.80;;;;;;6132463;23;20309;-78
2023/01/25 06:01:31;;;;;;;2.38;1.48;;;0.80;89.80;;;;;;6181631;23;20005;-78
2023/01/25 06:03:57;;;;;;;3.30;1.60;;;0.80;89.90;;;;;;6155485;23;20056;-78
2023/01/25 06:06:23;;;;;;;2.55;1.27;;;0.80;89.80;;;;;;6156758;23;20328;-78
2023/01/25 06:08:49;;;;;;;2.35;1.23;;;0.90;89.80;;;;;;6157380;23;20080;-79
2023/01/25 06:11:17;;;;;;;2.55;1.50;;;0.80;89.80;;;;;;6181289;23;20037;-78
2023/01/25 06:13:44;;;;;;;2.15;1.20;;;0.70;89.80;;;;;;6156630;23;20325;-79
2023/01/25 06:16:09;;;;;;;2.40;1.50;;;0.80;90.00;;;;;;6132044;23;20009;-76
2023/01/25 06:18:35;;;;;;;3.30;1.65;;;0.70;90.00;;;;;;6179684;23;20002;-79
2023/01/25 06:21:02;;;;;;;2.95;1.50;;;0.70;90.00;;;;;;6131740;23;20032;-77
2023/01/25 06:23:28;;;;;;;2.10;1.42;;;0.70;89.90;;;;;;6132226;23;20001;-75
2023/01/25 06:26:04;;;;;;;2.75;1.33;;;0.80;90.00;;;;;;6182918;23;20029;-75
2023/01/25 06:28:31;;;;;;;2.63;1.35;;;0.70;89.90;;;;;;6130524;23;20005;-75
2023/01/25 06:31:03;;;;;;;3.22;1.67;;;0.70;89.90;;;;;;6154654;23;20194;-75
2023/01/25 06:33:29;;;;;;;3.22;1.60;;;0.70;90.00;;;;;;6128544;23;20012;-75
2023/01/25 06:35:59;;;;;;;3.75;1.95;;;0.60;89.90;;;;;;6156269;23;20009;-75
2023/01/25 06:38:25;;;;;;;3.67;1.60;;;0.50;90.00;;;;;;6156482;23;20036;-75
2023/01/25 06:40:50;;;;;;;2.80;1.70;;;0.60;90.00;;;;;;6156496;23;20028;-75
2023/01/25 06:43:16;;;;;;;3.22;1.80;;;0.60;90.00;;;;;;6182904;23;20005;-75
2023/01/25 06:45:42;;;;;;;3.83;1.90;;;0.60;90.00;;;;;;6182497;23;20075;-75
2023/01/25 06:48:07;;;;;;;3.70;1.85;;;0.60;90.00;;;;;;6157981;23;20005;-75
2023/01/25 06:50:33;;;;;;;3.67;1.80;;;0.60;90.00;;;;;;6184664;23;20374;-75
2023/01/25 06:52:58;;;;;;;3.60;1.67;;;0.60;90.00;;;;;;6182760;23;20090;-75
2023/01/25 06:55:24;;;;;;;5.78;2.90;;;0.60;90.00;;;;;;6157909;23;20016;-74
2023/01/25 06:57:50;;;;;;;4.97;2.50;;;0.50;90.00;;;;;;6158076;23;20015;-75
2023/01/25 07:00:16;;;;;;;5.07;2.63;;;0.50;90.00;;;;;;6157793;23;20001;-75
2023/01/25 07:02:42;;;;;;;6.00;2.97;;;0.50;90.00;;;;;;6157831;23;20001;-74
2023/01/25 07:05:08;;;;;;;4.78;2.40;;;0.40;90.00;;;;;;6182441;23;20371;-77
2023/01/25 07:07:34;;;;;;;4.72;2.72;;;0.40;90.00;;;;;;6132137;23;20013;-77
2023/01/25 07:10:00;;;;;;;4.13;1.88;;;0.40;90.00;;;;;;6157963;23;20018;-77
2023/01/25 07:12:29;;;;;;;4.05;1.95;;;0.40;90.00;;;;;;6181459;23;20009;-77
2023/01/25 07:14:54;;;;;;;4.50;2.30;;;0.40;90.00;;;;;;6184223;23;20009;-77
2023/01/25 07:17:20;;;;;;;4.88;2.25;;;0.40;90.00;;;;;;6132839;23;20384;-78
2023/01/25 07:19:46;;;;;;;5.38;2.80;;;0.40;90.00;;;;;;6158049;23;20441;-77
2023/01/25 07:22:12;;;;;;;4.93;2.65;;;0.40;90.00;;;;;;6133116;23;20024;-77
2023/01/25 07:24:37;;;;;;;4.63;2.17;;;0.40;90.00;;;;;;6157998;23;20009;-77
2023/01/25 07:27:03;;;;;;;4.47;2.00;;;0.30;90.00;;;;;;6155993;23;20011;-78
2023/01/25 07:29:29;;;;;;;3.97;1.92;;;0.40;90.00;;;;;;6184381;23;20418;-78
2023/01/25 07:31:54;;;;;;;3.65;2.08;;;0.40;90.00;;;;;;6182288;23;20017;-77
2023/01/25 07:34:20;;;;;;;4.25;2.15;;;0.40;90.00;;;;;;6132996;23;20429;-78
2023/01/25 07:36:46;;;;;;;3.55;1.77;;;0.40;90.00;;;;;;6155315;23;20005;-77
2023/01/25 07:39:12;;;;;;;4.78;2.42;;;0.40;90.00;;;;;;6158378;23;20005;-77
2023/01/25 07:41:39;;;;;;;4.43;2.15;;;0.40;90.00;;;;;;6128850;23;20430;-77
2023/01/25 07:44:05;;;;;;;4.35;1.95;;;0.40;90.00;;;;;;6131621;23;19997;-77
2023/01/25 07:46:30;;;;;;;4.45;2.15;;;0.40;90.00;;;;;;6154977;23;19998;-77
2023/01/25 07:48:57;;;;;;;4.50;1.90;;;0.40;90.00;;;;;;6133245;23;20017;-76
2023/01/25 07:51:25;;;;;;;4.53;2.00;;;0.40;90.00;;;;;;6133178;23;20425;-77
2023/01/25 07:53:58;;;;;;;3.83;2.08;;;0.40;90.00;;;;;;6184484;23;20024;-77
2023/01/25 07:56:28;;;;;;;4.05;2.30;;;0.40;90.00;;;;;;6131735;23;20005;-77
2023/01/25 07:58:55;;;;;;;3.80;2.08;;;0.40;90.00;;;;;;6157819;23;20052;-77
2023/01/25 08:01:24;;;;;;;3.58;1.77;;;0.40;90.00;;;;;;6156243;23;20009;-77
2023/01/25 08:03:50;;;;;;;3.10;1.60;;;0.40;90.00;;;;;;6131452;23;20850;-76
2023/01/25 08:06:21;;;;;;;3.58;1.65;;;0.40;90.00;;;;;;6158147;23;20011;-77
2023/01/25 08:08:48;;;;;;;4.35;2.03;;;0.40;90.00;;;;;;6158197;23;20013;-76
2023/01/25 08:11:17;;;;;;;4.07;2.30;;;0.40;90.00;;;;;;6133049;23;20092;-77
2023/01/25 08:13:45;;;;;;;5.93;2.60;;;0.40;90.00;;;;;;6183764;23;20013;-77
2023/01/25 08:16:12;;;;;;;4.82;2.22;;;0.40;90.00;;;;;;6157666;23;20314;-77
2023/01/25 08:18:38;;;;;;;4.18;2.15;;;0.40;90.00;;;;;;6133209;23;20005;-77
2023/01/25 08:21:04;;;;;;;5.18;2.45;;;0.40;90.00;;;;;;6182252;23;20089;-77
2023/01/25 08:23:30;;;;;;;6.35;3.13;;;0.30;90.00;;;;;;6157754;23;20060;-77
2023/01/25 08:26:00;;;;;;;5.35;2.50;;;0.30;90.00;;;;;;6184229;23;20005;-77
2023/01/25 08:28:25;;;;;;;6.03;3.25;;;0.30;90.00;;;;;;6183851;23;20417;-77
2023/01/25 08:30:51;;;;;;;4.82;2.38;;;0.30;90.00;;;;;;6132901;23;20008;-77
2023/01/25 08:33:16;;;;;;;5.13;2.55;;;0.20;90.00;;;;;;6132689;23;20001;-77
2023/01/25 08:35:42;;;;;;;4.60;2.17;;;0.30;90.00;;;;;;6129664;23;20378;-77
2023/01/25 08:38:08;;;;;;;4.63;2.13;;;0.30;90.00;;;;;;6157888;23;20015;-77
2023/01/25 08:40:33;;;;;;;4.70;2.67;;;0.30;90.30;;;;;;6182046;23;20037;-78
2023/01/25 08:42:59;;;;;;;3.95;1.83;;;0.30;90.00;;;;;;6132719;23;20005;-77
2023/01/25 08:45:24;;;;;;;4.32;2.03;;;0.30;90.00;;;;;;6184246;23;20058;-77
2023/01/25 08:47:50;;;;;;;4.03;1.85;;;0.20;90.00;;;;;;6132849;23;20441;-77
2023/01/25 08:50:16;;;;;;;3.85;1.77;;;0.40;90.10;;;;;;6184469;23;20013;-77
2023/01/25 08:52:41;;;;;;;3.63;1.75;;;0.40;90.00;;;;;;6155793;23;20005;-78
2023/01/25 08:55:07;;;;;;;3.20;1.60;;;0.40;90.00;;;;;;6182573;23;20005;-78
2023/01/25 08:57:33;;;;;;;3.65;2.17;;;0.40;90.00;;;;;;6132822;23;20441;-77
2023/01/25 08:59:59;;;;;;;5.40;2.40;;;0.50;90.00;;;;;;6130998;23;20008;-78
2023/01/25 09:02:25;;;;;;;3.40;1.80;;;0.40;89.80;;;;;;6184144;23;19997;-77
2023/01/25 09:04:51;;;;;;;4.13;1.80;;;0.30;89.80;;;;;;6132464;23;20047;-78
2023/01/25 09:07:16;;;;;;;4.25;2.13;;;0.30;89.90;;;;;;6157361;23;20028;-78
2023/01/25 09:09:42;;;;;;;5.10;1.95;;;0.40;90.00;;;;;;6131869;23;20044;-78
2023/01/25 09:12:08;;;;;;;4.82;2.35;;;0.50;90.00;;;;;;6130370;23;20359;-77
2023/01/25 09:14:35;;;;;;;3.63;1.90;;;0.40;90.00;;;;;;6157311;23;20319;-78
2023/01/25 09:17:01;;;;;;;3.85;1.85;;;0.50;90.00;;;;;;6132834;23;20067;-78
2023/01/25 09:19:26;;;;;;;4.45;2.38;;;0.50;89.90;;;;;;6157291;23;20013;-78
2023/01/25 09:21:52;;;;;;;4.13;2.20;;;0.50;89.90;;;;;;6157152;23;20310;-78
2023/01/25 09:24:18;;;;;;;3.72;1.80;;;0.40;89.90;;;;;;6157159;23;20027;-77
2023/01/25 09:26:43;;;;;;;4.05;1.85;;;0.40;89.90;;;;;;6131996;23;20005;-77
2023/01/25 09:29:10;;;;;;;4.20;2.05;;;0.40;90.00;;;;;;6132501;23;20005;-78
2023/01/25 09:31:39;;;;;;;3.03;1.52;;;0.60;90.00;;;;;;6157450;23;20013;-78
2023/01/25 09:34:05;;;;;;;3.42;1.58;;;0.50;90.00;;;;;;6183414;23;20033;-78
2023/01/25 09:36:30;;;;;;;3.90;1.80;;;0.60;89.90;;;;;;6156851;23;20088;-78
2023/01/25 09:38:56;;;;;;;3.97;2.17;;;0.60;89.80;;;;;;6181589;23;20094;-78
2023/01/25 09:41:38;;;;;;;4.60;2.13;;;0.60;89.80;;;;;;6155961;23;20009;-78
2023/01/25 09:44:42;;;;;;;3.75;1.80;;;0.60;89.70;;;;;;6153714;23;20087;-78
2023/01/25 09:47:23;;;;;;;4.60;2.00;;;0.60;89.80;;;;;;6127257;23;20064;-78
2023/01/25 09:50:22;;;;;;;6.60;3.17;;;0.60;89.70;;;;;;6102712;23;20005;-78
2023/01/25 09:53:12;;;;;;;5.35;2.30;;;0.50;89.80;;;;;;6106833;23;20009;-78
2023/01/25 09:55:39;;;;;;;5.78;2.92;;;0.40;89.80;;;;;;6127474;23;20020;-78
2023/01/25 09:58:12;;;;;;;5.18;2.58;;;0.40;89.90;;;;;;6127103;23;20005;-78
2023/01/25 10:00:44;;;;;;;4.93;2.40;;;0.30;89.90;;;;;;6128461;23;20053;-78
2023/01/25 10:03:24;;;;;;;5.72;2.67;;;0.40;90.00;;;;;;6127270;23;20016;-78
2023/01/25 10:05:54;;;;;;;5.88;2.80;;;0.40;90.00;;;;;;6127278;23;20075;-77
2023/01/25 10:08:57;;;;;;;4.85;2.40;;;0.30;89.80;;;;;;6127372;23;20006;-78
2023/01/25 10:11:28;;;;;;;5.28;2.10;;;0.30;90.00;;;;;;6153195;23;20025;-78
2023/01/25 10:13:55;;;;;;;5.55;2.50;;;0.30;90.00;;;;;;6102251;23;20029;-77
2023/01/25 10:16:44;;;;;;;5.47;2.53;;;0.30;90.00;;;;;;6127009;23;20016;-77
2023/01/25 10:19:37;;;;;;;6.03;2.70;;;0.30;90.00;;;;;;6159976;23;20017;-77
2023/01/25 10:22:13;;;;;;;4.95;2.40;;;0.40;90.00;;;;;;6155109;23;20809;-78
2023/01/25 10:24:58;;;;;;;4.18;1.92;;;0.30;89.80;;;;;;6156426;23;20071;-78
2023/01/25 10:27:38;;;;;;;5.55;2.30;;;0.30;90.00;;;;;;6153674;23;20005;-78
2023/01/25 10:30:26;;;;;;;4.72;2.03;;;0.30;90.00;;;;;;6157067;23;20842;-78
2023/01/25 10:33:04;;;;;;;4.18;1.90;;;0.30;89.90;;;;;;6157249;23;20456;-78
2023/01/25 10:35:36;;;;;;;4.20;2.00;;;0.50;90.00;;;;;;6161015;23;20005;-78
2023/01/25 10:38:10;;;;;;;4.32;2.10;;;0.50;90.00;;;;;;6184098;23;20028;-79
2023/01/25 10:40:45;;;;;;;3.58;1.83;;;0.50;89.80;;;;;;6157985;23;20001;-78
2023/01/25 10:43:18;;;;;;;3.85;1.63;;;0.60;89.90;;;;;;6157937;23;19997;-78
2023/01/25 10:45:44;;;;;;;3.75;1.77;;;0.60;89.80;;;;;;6107147;23;20009;-78
2023/01/25 10:48:17;;;;;;;4.20;1.98;;;0.60;89.90;;;;;;6130669;23;20006;-78
2023/01/25 10:50:46;;;;;;;3.42;1.75;;;0.80;90.00;;;;;;6157830;23;20159;-78
2023/01/25 10:53:32;;;;;;;4.88;2.30;;;0.70;89.80;;;;;;6102966;23;20548;-78
2023/01/25 10:56:05;;;;;;;4.53;2.30;;;0.70;89.80;;;;;;6181786;23;20005;-78
2023/01/25 10:58:37;;;;;;;5.20;2.47;;;0.60;89.60;;;;;;6157566;23;20012;-78
2023/01/25 11:01:06;;;;;;;4.22;1.80;;;0.70;89.80;;;;;;6158130;23;20028;-78
2023/01/25 11:03:36;;;;;;;4.25;2.10;;;0.70;89.70;;;;;;6133181;23;20408;-79
2023/01/25 11:06:02;;;;;;;5.00;2.58;;;0.70;89.70;;;;;;6157833;23;20009;-79
2023/01/25 11:08:39;;;;;;;4.72;2.25;;;0.70;89.70;;;;;;6181350;23;19997;-78
2023/01/25 11:11:22;;;;;;;5.45;2.33;;;0.70;89.80;;;;;;6158267;23;20109;-79
2023/01/25 11:13:48;;;;;;;4.35;2.20;;;0.70;89.80;;;;;;6132369;23;20087;-79
2023/01/25 11:16:34;;;;;;;5.30;2.40;;;0.80;89.70;;;;;;6182916;23;20036;-78
2023/01/25 11:19:01;;;;;;;6.00;2.72;;;0.80;89.70;;;;;;6133098;23;20441;-79
2023/01/25 11:21:32;;;;;;;6.47;3.35;;;0.80;89.60;;;;;;6133229;23;20088;-79
2023/01/25 11:24:15;;;;;;;6.80;3.33;;;0.70;89.50;;;;;;6157632;23;20488;-79
2023/01/25 11:26:41;;;;;;;5.40;3.00;;;0.80;89.80;;;;;;6105108;23;20029;-79
2023/01/25 11:29:13;;;;;;;7.25;3.42;;;0.70;89.70;;;;;;6157589;23;20044;-78
2023/01/25 11:31:40;;;;;;;6.93;3.30;;;0.70;89.70;;;;;;6154551;23;20013;-78
2023/01/25 11:34:10;;;;;;;5.10;2.55;;;0.60;89.70;;;;;;6131173;23;20012;-79
2023/01/25 11:37:01;;;;;;;7.32;3.35;;;0.60;89.80;;;;;;6132436;23;20032;-77
2023/01/25 11:39:54;;;;;;;5.75;2.55;;;0.60;89.80;;;;;;6181738;23;20005;-78
2023/01/25 11:42:42;;;;;;;6.20;2.97;;;0.60;90.00;;;;;;6130956;23;20032;-78
2023/01/25 11:45:44;;;;;;;6.28;2.85;;;0.70;90.00;;;;;;6133855;23;20013;-78
2023/01/25 11:48:45;;;;;;;6.28;3.28;;;0.60;89.80;;;;;;6129237;23;20008;-78
2023/01/25 11:51:25;;;;;;;5.95;2.75;;;0.60;89.90;;;;;;6130211;23;20065;-78
2023/01/25 11:54:22;;;;;;;5.72;2.63;;;0.60;89.90;;;;;;6156878;23;20013;-78
2023/01/25 11:57:16;;;;;;;5.80;2.60;;;0.70;90.00;;;;;;6156295;23;20152;-79
2023/01/25 12:00:13;;;;;;;6.07;2.70;;;0.70;89.90;;;;;;6155325;23;19998;-79
2023/01/25 12:03:03;;;;;;;5.55;2.67;;;0.70;89.80;;;;;;6179792;23;19997;-78
2023/01/25 12:05:53;;;;;;;6.28;2.47;;;0.60;89.80;;;;;;6183096;23;20456;-78
2023/01/25 12:08:41;;;;;;;6.10;2.95;;;0.60;90.00;;;;;;6158269;23;20008;-79
2023/01/25 12:11:44;;;;;;;7.80;3.28;;;0.70;90.00;;;;;;6157364;23;20008;-78
2023/01/25 12:14:34;;;;;;;6.85;3.17;;;0.60;89.90;;;;;;6132767;23;20444;-79
2023/01/25 12:17:21;;;;;;;6.88;3.38;;;0.60;89.90;;;;;;6158282;23;20036;-78
2023/01/25 12:20:03;;;;;;;6.10;2.80;;;0.60;89.90;;;;;;6181633;23;20027;-79
2023/01/25 12:22:55;;;;;;;6.05;3.08;;;0.60;90.00;;;;;;6106426;23;20001;-79
2023/01/25 12:25:32;;;;;;;5.32;2.63;;;0.60;90.00;;;;;;6136682;23;20044;-78
2023/01/25 12:28:08;;;;;;;6.05;2.80;;;0.60;90.00;;;;;;6182735;23;20005;-79
2023/01/25 12:31:05;;;;;;;5.50;2.75;;;0.60;90.00;;;;;;6107652;23;20006;-79
2023/01/25 12:33:37;;;;;;;5.60;2.88;;;0.60;90.00;;;;;;6105550;23;20021;-79
2023/01/25 12:36:26;;;;;;;6.60;3.35;;;0.50;90.00;;;;;;6181870;23;20009;-79
2023/01/25 12:39:04;;;;;;;6.35;3.20;;;0.60;90.00;;;;;;6161290;23;20036;-78
2023/01/25 12:41:47;;;;;;;6.15;2.63;;;0.60;90.00;;;;;;6130170;23;20012;-79
2023/01/25 12:44:29;;;;;;;6.55;2.80;;;0.60;90.00;;;;;;6135009;23;20005;-79
2023/01/25 12:47:13;;;;;;;7.20;3.55;;;0.60;90.00;;;;;;6182743;23;20001;-79
2023/01/25 12:50:01;;;;;;;7.43;3.67;;;0.60;90.00;;;;;;6183856;23;20434;-79
2023/01/25 12:52:31;;;;;;;7.18;3.50;;;0.50;90.00;;;;;;6104226;23;20335;-78
2023/01/25 12:55:01;;;;;;;9.27;4.60;;;0.50;90.00;;;;;;6106619;23;20014;-79
2023/01/25 12:57:35;;;;;;;6.22;3.22;;;0.50;90.00;;;;;;6158379;23;20052;-78
2023/01/25 13:00:19;;;;;;;7.93;3.25;;;0.50;90.00;;;;;;6157148;23;20040;-78
2023/01/25 13:03:17;;;;;;;5.75;2.80;;;0.60;90.40;;;;;;6131916;23;20027;-78
2023/01/25 13:06:08;;;;;;;6.47;3.33;;;0.60;90.10;;;;;;6182671;23;20445;-79
2023/01/25 13:09:00;;;;;;;7.05;3.00;;;0.60;90.00;;;;;;6156993;23;20865;-79
2023/01/25 13:11:32;;;;;;;;;;;0.60;90.00;;;;;;6153812;23;20029;-79
2023/01/25 13:14:31;;;;;;;7.93;3.83;;;0.50;90.00;;;;;;6183751;23;19907;-79
2023/01/25 13:17:29;;;;;;;9.48;4.47;;;0.60;90.20;;;;;;6159654;23;20087;-79